createdAt,value
2023-05-09T00:01:13.505Z,101419.83
2023-05-09T00:02:17.862Z,101419.41
2023-05-09T00:03:21.765Z,101425.84
2023-05-09T00:04:25.825Z,101411.75
2023-05-09T00:05:30.359Z,101416.31
2023-05-09T00:06:33.131Z,101423.55
2023-05-09T00:07:39.084Z,101417.67
2023-05-09T00:08:42.430Z,101420.32
2023-05-09T00:09:45.630Z,101417.67
2023-05-09T00:10:47.982Z,101415.12
2023-05-09T00:11:53.362Z,101416.65
2023-05-09T00:12:57.486Z,101420.16
2023-05-09T00:14:00.843Z,101420.91
2023-05-09T00:15:04.818Z,101420.05
2023-05-09T00:16:08.772Z,101416.09
2023-05-09T00:17:13.459Z,101426.42
2023-05-09T00:18:19.871Z,101421.19
2023-05-09T00:19:23.324Z,101414.11
2023-05-09T00:20:26.737Z,101420.21
2023-05-09T00:21:32.009Z,101417.41
2023-05-09T00:22:35.624Z,101419.83
2023-05-09T00:23:39.436Z,101414.76
2023-05-09T00:24:42.843Z,101421.83
2023-05-09T00:25:46.450Z,101428.95
2023-05-09T00:26:49.839Z,101425.34
2023-05-09T00:27:56.310Z,101429.60
2023-05-09T00:29:01.460Z,101423.45
2023-05-09T00:30:09.017Z,101425.17
2023-05-09T00:31:14.532Z,101430.47
2023-05-09T00:32:17.974Z,101424.36
2023-05-09T00:33:21.329Z,101429.98
2023-05-09T00:34:24.414Z,101419.66
2023-05-09T00:35:28.535Z,101427.53
2023-05-09T00:36:32.990Z,101428.25
2023-05-09T00:37:36.494Z,101422.97
2023-05-09T00:38:40.880Z,101424.59
2023-05-09T00:39:44.448Z,101425.55
2023-05-09T00:40:47.901Z,101429.93
2023-05-09T00:41:51.040Z,101422.75
2023-05-09T00:42:56.631Z,101429.13
2023-05-09T00:44:01.275Z,101426.31
2023-05-09T00:45:07.501Z,101427.92
2023-05-09T00:46:10.197Z,101421.88
2023-05-09T00:47:13.459Z,101425.34
2023-05-09T00:48:16.173Z,101419.30
2023-05-09T00:49:22.458Z,101418.79
2023-05-09T00:50:27.705Z,101421.08
2023-05-09T00:51:33.148Z,101420.46
2023-05-09T00:52:36.788Z,101426.78
2023-05-09T00:53:40.981Z,101425.16
2023-05-09T00:54:44.582Z,101425.75
2023-05-09T00:55:46.944Z,101427.53
2023-05-09T00:56:53.157Z,101427.06
2023-05-09T00:57:56.667Z,101420.27
2023-05-09T00:59:01.750Z,101420.73
2023-05-09T01:00:05.660Z,101418.03
2023-05-09T01:01:08.583Z,101423.43
2023-05-09T01:02:11.589Z,101424.30
2023-05-09T01:03:14.499Z,101425.16
2023-05-09T01:04:18.439Z,101424.86
2023-05-09T01:05:23.812Z,101423.94
2023-05-09T01:06:32.436Z,101421.19
2023-05-09T01:07:36.986Z,101426.32
2023-05-09T01:09:01.483Z,101426.99
2023-05-09T01:10:07.289Z,101428.97
2023-05-09T01:11:13.844Z,101417.52
2023-05-09T01:13:43.197Z,101420.11
2023-05-09T01:14:48.470Z,101419.36
2023-05-09T01:16:06.279Z,101420.88
2023-05-09T01:17:14.891Z,101419.76
2023-05-09T01:18:19.547Z,101418.14
2023-05-09T01:19:42.053Z,101418.45
2023-05-09T01:20:47.766Z,101421.95
2023-05-09T01:21:52.971Z,101430.94
2023-05-09T01:22:58.640Z,101426.52
2023-05-09T01:24:24.596Z,101425.70
2023-05-09T01:25:44.090Z,101419.70
2023-05-09T01:27:13.431Z,101425.75
2023-05-09T01:28:20.580Z,101423.31
2023-05-09T01:29:40.983Z,101425.09
2023-05-09T01:30:46.220Z,101427.84
2023-05-09T01:31:49.981Z,101435.66
2023-05-09T01:34:06.386Z,101431.29
2023-05-09T01:35:10.844Z,101430.81
2023-05-09T01:36:16.003Z,101428.17
2023-05-09T01:37:21.323Z,101426.59
2023-05-09T01:38:26.391Z,101433.55
2023-05-09T01:39:29.820Z,101428.27
2023-05-09T01:40:34.470Z,101427.73
2023-05-09T01:41:38.558Z,101430.56
2023-05-09T01:42:44.975Z,101423.46
2023-05-09T01:43:50.305Z,101421.63
2023-05-09T01:44:54.282Z,101429.46
2023-05-09T01:46:00.319Z,101423.84
2023-05-09T01:47:07.440Z,101432.05
2023-05-09T01:48:11.794Z,101426.05
2023-05-09T01:49:16.452Z,101420.05
2023-05-09T01:50:19.536Z,101428.89
2023-05-09T01:51:24.188Z,101426.15
2023-05-09T01:52:28.327Z,101426.33
2023-05-09T01:53:30.792Z,101427.24
2023-05-09T01:54:36.274Z,101421.05
2023-05-09T01:55:42.339Z,101422.92
2023-05-09T01:56:47.150Z,101429.20
2023-05-09T01:57:51.695Z,101418.59
2023-05-09T01:58:56.144Z,101421.28
2023-05-09T01:59:58.800Z,101421.14
2023-05-09T02:01:05.250Z,101425.75
2023-05-09T02:02:08.961Z,101419.66
2023-05-09T02:03:13.188Z,101428.72
2023-05-09T02:04:17.962Z,101433.03
2023-05-09T02:05:22.287Z,101420.84
2023-05-09T02:06:25.493Z,101422.75
2023-05-09T02:07:31.283Z,101421.02
2023-05-09T02:08:34.161Z,101426.48
2023-05-09T02:09:37.603Z,101424.80
2023-05-09T02:10:42.545Z,101422.11
2023-05-09T02:11:46.450Z,101420.29
2023-05-09T02:12:51.250Z,101421.89
2023-05-09T02:13:54.712Z,101421.80
2023-05-09T02:14:57.901Z,101426.02
2023-05-09T02:16:01.516Z,101418.24
2023-05-09T02:17:06.560Z,101421.08
2023-05-09T02:18:11.239Z,101420.43
2023-05-09T02:19:15.690Z,101427.27
2023-05-09T02:20:19.114Z,101425.57
2023-05-09T02:21:22.590Z,101422.30
2023-05-09T02:22:25.897Z,101421.29
2023-05-09T02:23:29.491Z,101416.83
2023-05-09T02:24:34.666Z,101422.11
2023-05-09T02:25:39.217Z,101423.84
2023-05-09T02:26:43.045Z,101422.06
2023-05-09T02:27:47.067Z,101416.47
2023-05-09T02:28:50.781Z,101422.42
2023-05-09T02:29:59.232Z,101423.38
2023-05-09T02:31:05.752Z,101423.34
2023-05-09T02:32:11.178Z,101422.42
2023-05-09T02:33:15.120Z,101424.13
2023-05-09T02:34:18.821Z,101422.34
2023-05-09T02:35:23.506Z,101421.44
2023-05-09T02:36:27.635Z,101419.70
2023-05-09T02:37:31.880Z,101426.89
2023-05-09T02:38:35.796Z,101419.87
2023-05-09T02:39:42.540Z,101418.97
2023-05-09T02:40:50.928Z,101427.80
2023-05-09T02:41:56.561Z,101429.21
2023-05-09T02:42:59.836Z,101419.06
2023-05-09T02:44:06.790Z,101416.33
2023-05-09T02:45:12.741Z,101420.70
2023-05-09T02:46:16.407Z,101425.06
2023-05-09T02:47:18.978Z,101426.72
2023-05-09T02:48:22.591Z,101424.02
2023-05-09T02:49:32.525Z,101426.52
2023-05-09T02:50:32.317Z,101425.34
2023-05-09T02:51:35.734Z,101425.38
2023-05-09T02:52:39.631Z,101432.57
2023-05-09T02:53:43.251Z,101430.98
2023-05-09T02:54:47.486Z,101432.67
2023-05-09T02:55:51.520Z,101423.02
2023-05-09T02:56:53.797Z,101431.61
2023-05-09T02:58:12.094Z,101430.75
2023-05-09T02:59:06.407Z,101429.83
2023-05-09T03:00:10.850Z,101431.61
2023-05-09T03:01:17.448Z,101429.06
2023-05-09T03:02:25.596Z,101429.56
2023-05-09T03:03:28.948Z,101435.66
2023-05-09T03:04:33.129Z,101434.84
2023-05-09T03:05:36.673Z,101433.78
2023-05-09T03:06:40.132Z,101435.66
2023-05-09T03:07:47.612Z,101433.83
2023-05-09T03:08:51.118Z,101430.23
2023-05-09T03:09:55.136Z,101441.85
2023-05-09T03:11:02.202Z,101432.92
2023-05-09T03:12:06.741Z,101431.01
2023-05-09T03:13:12.436Z,101433.45
2023-05-09T03:14:16.373Z,101435.13
2023-05-09T03:15:20.952Z,101429.70
2023-05-09T03:16:25.713Z,101435.56
2023-05-09T03:17:28.203Z,101434.90
2023-05-09T03:18:32.169Z,101442.63
2023-05-09T03:19:36.187Z,101430.80
2023-05-09T03:20:39.818Z,101432.05
2023-05-09T03:21:43.925Z,101434.59
2023-05-09T03:22:49.115Z,101439.12
2023-05-09T03:23:53.497Z,101437.48
2023-05-09T03:24:57.060Z,101437.34
2023-05-09T03:26:00.464Z,101440.59
2023-05-09T03:27:04.398Z,101438.73
2023-05-09T03:28:07.764Z,101436.59
2023-05-09T03:29:12.757Z,101436.34
2023-05-09T03:30:16.619Z,101438.19
2023-05-09T03:31:20.842Z,101433.28
2023-05-09T03:32:24.124Z,101440.27
2023-05-09T03:33:26.871Z,101435.73
2023-05-09T03:34:30.697Z,101436.44
2023-05-09T03:35:34.525Z,101433.84
2023-05-09T03:36:38.762Z,101440.11
2023-05-09T03:37:42.418Z,101446.31
2023-05-09T03:38:44.925Z,101442.64
2023-05-09T03:39:47.753Z,101448.34
2023-05-09T03:40:53.207Z,101442.19
2023-05-09T03:41:57.596Z,101439.79
2023-05-09T03:43:00.628Z,101446.42
2023-05-09T03:44:04.590Z,101448.08
2023-05-09T03:45:09.922Z,101449.20
2023-05-09T03:46:14.509Z,101448.91
2023-05-09T03:47:18.897Z,101443.86
2023-05-09T03:48:22.241Z,101453.87
2023-05-09T03:49:27.062Z,101448.98
2023-05-09T03:50:29.947Z,101446.28
2023-05-09T03:51:34.295Z,101443.80
2023-05-09T03:52:38.740Z,101443.33
2023-05-09T03:53:43.871Z,101451.11
2023-05-09T03:54:47.110Z,101452.02
2023-05-09T03:55:49.862Z,101451.38
2023-05-09T03:56:53.491Z,101453.64
2023-05-09T03:57:56.572Z,101447.23
2023-05-09T03:58:59.866Z,101448.77
2023-05-09T04:00:05.854Z,101448.34
2023-05-09T04:01:11.367Z,101451.36
2023-05-09T04:02:17.398Z,101446.24
2023-05-09T04:03:21.485Z,101444.07
2023-05-09T04:04:26.279Z,101452.82
2023-05-09T04:05:28.846Z,101452.41
2023-05-09T04:06:35.029Z,101448.38
2023-05-09T04:07:39.299Z,101454.16
2023-05-09T04:08:43.426Z,101453.80
2023-05-09T04:09:47.251Z,101454.92
2023-05-09T04:10:53.250Z,101461.16
2023-05-09T04:11:56.251Z,101453.73
2023-05-09T04:13:00.713Z,101449.06
2023-05-09T04:14:05.854Z,101458.86
2023-05-09T04:15:12.263Z,101457.94
2023-05-09T04:16:17.539Z,101455.82
2023-05-09T04:17:21.094Z,101460.52
2023-05-09T04:18:28.128Z,101468.87
2023-05-09T04:19:30.494Z,101466.40
2023-05-09T04:20:34.201Z,101469.73
2023-05-09T04:21:38.341Z,101458.97
2023-05-09T04:22:42.820Z,101468.47
2023-05-09T04:23:48.696Z,101474.93
2023-05-09T04:24:54.256Z,101469.98
2023-05-09T04:25:58.421Z,101468.27
2023-05-09T04:27:01.609Z,101466.36
2023-05-09T04:28:04.489Z,101466.48
2023-05-09T04:29:08.000Z,101473.97
2023-05-09T04:30:12.221Z,101470.52
2023-05-09T04:31:15.187Z,101469.91
2023-05-09T04:32:21.368Z,101472.78
2023-05-09T04:33:27.341Z,101476.08
2023-05-09T04:34:34.082Z,101465.22
2023-05-09T04:35:40.412Z,101474.95
2023-05-09T04:36:44.014Z,101475.50
2023-05-09T04:37:47.620Z,101474.83
2023-05-09T04:38:53.840Z,101471.53
2023-05-09T04:40:00.277Z,101471.53
2023-05-09T04:41:06.282Z,101469.38
2023-05-09T04:42:09.629Z,101472.16
2023-05-09T04:43:13.509Z,101473.42
2023-05-09T04:44:18.474Z,101471.64
2023-05-09T04:45:24.908Z,101472.94
2023-05-09T04:46:29.226Z,101475.92
2023-05-09T04:47:32.655Z,101473.52
2023-05-09T04:48:35.526Z,101473.53
2023-05-09T04:49:38.926Z,101474.94
2023-05-09T04:50:42.432Z,101479.45
2023-05-09T04:51:46.249Z,101484.44
2023-05-09T04:52:49.753Z,101482.84
2023-05-09T04:53:53.375Z,101473.29
2023-05-09T04:54:58.113Z,101473.53
2023-05-09T04:56:02.433Z,101479.86
2023-05-09T04:57:17.469Z,101481.92
2023-05-09T04:58:15.223Z,101477.92
2023-05-09T04:59:19.135Z,101480.83
2023-05-09T05:00:23.471Z,101483.47
2023-05-09T05:01:27.358Z,101483.90
2023-05-09T05:02:31.799Z,101479.10
2023-05-09T05:03:36.253Z,101483.72
2023-05-09T05:04:40.531Z,101475.97
2023-05-09T05:05:43.808Z,101484.27
2023-05-09T05:06:47.578Z,101488.17
2023-05-09T05:07:49.987Z,101490.75
2023-05-09T05:08:55.580Z,101483.16
2023-05-09T05:10:00.157Z,101489.19
2023-05-09T05:11:03.859Z,101481.66
2023-05-09T05:12:10.490Z,101487.00
2023-05-09T05:13:15.062Z,101485.13
2023-05-09T05:14:27.885Z,101484.95
2023-05-09T05:15:31.872Z,101479.64
2023-05-09T05:16:35.785Z,101480.80
2023-05-09T05:17:39.607Z,101481.04
2023-05-09T05:18:43.852Z,101475.20
2023-05-09T05:19:48.134Z,101476.61
2023-05-09T05:20:51.976Z,101478.20
2023-05-09T05:21:55.698Z,101486.20
2023-05-09T05:23:00.486Z,101488.26
2023-05-09T05:24:03.563Z,101488.78
2023-05-09T05:25:08.005Z,101485.44
2023-05-09T05:26:12.141Z,101485.02
2023-05-09T05:27:15.228Z,101482.16
2023-05-09T05:28:17.793Z,101480.27
2023-05-09T05:29:21.081Z,101479.69
2023-05-09T05:30:25.636Z,101487.98
2023-05-09T05:31:29.181Z,101481.93
2023-05-09T05:32:32.679Z,101480.28
2023-05-09T05:33:37.614Z,101477.09
2023-05-09T05:34:42.792Z,101474.14
2023-05-09T05:35:46.078Z,101477.55
2023-05-09T05:36:48.410Z,101482.04
2023-05-09T05:37:55.178Z,101481.96
2023-05-09T05:38:58.811Z,101483.97
2023-05-09T05:40:02.945Z,101483.81
2023-05-09T05:41:07.047Z,101489.71
2023-05-09T05:42:11.897Z,101499.45
2023-05-09T05:43:15.836Z,101486.30
2023-05-09T05:44:21.778Z,101497.64
2023-05-09T05:45:28.343Z,101492.36
2023-05-09T05:46:33.659Z,101493.91
2023-05-09T05:47:38.055Z,101485.80
2023-05-09T05:48:49.620Z,101492.84
2023-05-09T05:49:55.794Z,101503.99
2023-05-09T05:50:58.936Z,101494.23
2023-05-09T05:52:07.457Z,101491.86
2023-05-09T05:53:12.717Z,101510.63
2023-05-09T05:54:16.792Z,101501.91
2023-05-09T05:55:21.071Z,101508.41
2023-05-09T05:56:23.906Z,101507.80
2023-05-09T05:57:27.476Z,101512.96
2023-05-09T05:58:32.913Z,101513.29
2023-05-09T05:59:39.878Z,101502.25
2023-05-09T06:00:44.816Z,101503.21
2023-05-09T06:01:49.323Z,101508.25
2023-05-09T06:02:52.328Z,101500.28
2023-05-09T06:04:00.855Z,101505.06
2023-05-09T06:05:07.790Z,101505.09
2023-05-09T06:06:12.669Z,101512.29
2023-05-09T06:07:17.353Z,101511.55
2023-05-09T06:08:22.203Z,101505.13
2023-05-09T06:09:25.461Z,101503.54
2023-05-09T06:10:30.163Z,101505.13
2023-05-09T06:11:32.819Z,101501.41
2023-05-09T06:12:36.213Z,101507.45
2023-05-09T06:13:46.006Z,101500.99
2023-05-09T06:14:49.125Z,101509.67
2023-05-09T06:15:54.988Z,101506.62
2023-05-09T06:16:58.235Z,101514.59
2023-05-09T06:18:10.218Z,101510.71
2023-05-09T06:19:13.855Z,101511.56
2023-05-09T06:20:19.969Z,101508.95
2023-05-09T06:21:23.377Z,101510.14
2023-05-09T06:22:30.331Z,101512.86
2023-05-09T06:23:33.838Z,101510.98
2023-05-09T06:24:37.010Z,101518.96
2023-05-09T06:25:43.395Z,101507.30
2023-05-09T06:26:46.843Z,101514.72
2023-05-09T06:27:50.757Z,101507.72
2023-05-09T06:28:54.062Z,101503.30
2023-05-09T06:29:57.791Z,101507.91
2023-05-09T06:31:03.073Z,101511.92
2023-05-09T06:32:06.572Z,101513.12
2023-05-09T06:33:11.753Z,101519.47
2023-05-09T06:34:16.486Z,101512.93
2023-05-09T06:35:20.820Z,101509.61
2023-05-09T06:36:24.146Z,101502.72
2023-05-09T06:37:27.022Z,101510.52
2023-05-09T06:38:30.622Z,101509.76
2023-05-09T06:39:35.485Z,101514.14
2023-05-09T06:40:39.104Z,101511.91
2023-05-09T06:41:42.913Z,101520.40
2023-05-09T06:42:45.397Z,101520.30
2023-05-09T06:43:51.392Z,101517.09
2023-05-09T06:44:54.937Z,101518.47
2023-05-09T06:46:00.138Z,101527.46
2023-05-09T06:47:03.716Z,101529.66
2023-05-09T06:48:07.222Z,101527.54
2023-05-09T06:49:11.628Z,101527.56
2023-05-09T06:50:16.088Z,101534.13
2023-05-09T06:51:19.481Z,101524.88
2023-05-09T06:52:24.126Z,101527.22
2023-05-09T06:53:27.544Z,101530.53
2023-05-09T06:54:35.637Z,101532.77
2023-05-09T06:55:40.084Z,101527.28
2023-05-09T06:56:43.578Z,101518.09
2023-05-09T06:57:46.860Z,101529.78
2023-05-09T06:58:49.977Z,101518.83
2023-05-09T06:59:53.112Z,101516.36
2023-05-09T07:01:00.634Z,101525.10
2023-05-09T07:02:04.291Z,101523.67
2023-05-09T07:03:11.298Z,101528.51
2023-05-09T07:04:18.149Z,101536.55
2023-05-09T07:05:21.596Z,101539.77
2023-05-09T07:06:25.370Z,101548.39
2023-05-09T07:07:31.506Z,101545.70
2023-05-09T07:08:34.879Z,101540.34
2023-05-09T07:09:40.056Z,101556.86
2023-05-09T07:10:44.611Z,101549.86
2023-05-09T07:11:48.127Z,101549.88
2023-05-09T07:12:51.528Z,101551.52
2023-05-09T07:13:54.694Z,101548.58
2023-05-09T07:14:58.112Z,101541.44
2023-05-09T07:16:01.876Z,101537.70
2023-05-09T07:17:21.182Z,101548.05
2023-05-09T07:18:08.726Z,101540.14
2023-05-09T07:19:14.113Z,101541.31
2023-05-09T07:20:16.252Z,101541.42
2023-05-09T07:21:18.621Z,101543.05
2023-05-09T07:22:22.092Z,101539.75
2023-05-09T07:23:29.221Z,101528.37
2023-05-09T07:24:32.341Z,101543.59
2023-05-09T07:25:35.759Z,101539.80
2023-05-09T07:26:39.285Z,101535.68
2023-05-09T07:27:43.091Z,101538.02
2023-05-09T07:28:46.598Z,101546.35
2023-05-09T07:29:51.641Z,101540.60
2023-05-09T07:30:56.845Z,101539.41
2023-05-09T07:32:00.281Z,101541.71
2023-05-09T07:33:03.565Z,101527.12
2023-05-09T07:34:07.155Z,101539.55
2023-05-09T07:35:11.011Z,101546.67
2023-05-09T07:36:18.342Z,101543.78
2023-05-09T07:37:21.843Z,101537.33
2023-05-09T07:38:25.029Z,101525.02
2023-05-09T07:39:28.329Z,101538.45
2023-05-09T07:40:39.255Z,101527.64
2023-05-09T07:41:42.768Z,101533.25
2023-05-09T07:42:50.129Z,101542.63
2023-05-09T07:43:54.457Z,101539.48
2023-05-09T07:44:59.365Z,101536.77
2023-05-09T07:46:05.187Z,101522.67
2023-05-09T07:47:10.598Z,101522.80
2023-05-09T07:48:14.440Z,101519.62
2023-05-09T07:49:16.791Z,101514.20
2023-05-09T07:50:21.347Z,101514.98
2023-05-09T07:51:24.881Z,101511.72
2023-05-09T07:52:27.139Z,101506.38
2023-05-09T07:53:30.603Z,101494.06
2023-05-09T07:54:34.004Z,101508.86
2023-05-09T07:55:37.188Z,101503.73
2023-05-09T07:56:42.061Z,101503.12
2023-05-09T07:57:45.244Z,101498.03
2023-05-09T07:58:48.453Z,101495.91
2023-05-09T07:59:52.059Z,101496.23
2023-05-09T08:00:56.815Z,101497.52
2023-05-09T08:01:59.582Z,101501.73
2023-05-09T08:03:03.313Z,101508.81
2023-05-09T08:04:09.174Z,101510.27
2023-05-09T08:05:15.862Z,101513.59
2023-05-09T08:06:22.217Z,101513.66
2023-05-09T08:07:30.066Z,101513.14
2023-05-09T08:08:34.398Z,101507.34
2023-05-09T08:09:42.602Z,101504.77
2023-05-09T08:10:48.615Z,101508.40
2023-05-09T08:11:52.121Z,101500.19
2023-05-09T08:12:55.679Z,101507.63
2023-05-09T08:14:02.107Z,101505.03
2023-05-09T08:15:07.739Z,101506.06
2023-05-09T08:16:12.764Z,101501.53
2023-05-09T08:17:16.912Z,101498.61
2023-05-09T08:18:22.442Z,101490.92
2023-05-09T08:19:25.636Z,101495.18
2023-05-09T08:20:28.938Z,101496.68
2023-05-09T08:21:38.509Z,101492.33
2023-05-09T08:22:42.012Z,101496.61
2023-05-09T08:23:45.824Z,101488.89
2023-05-09T08:24:50.268Z,101495.25
2023-05-09T08:25:55.250Z,101486.56
2023-05-09T08:26:58.951Z,101492.91
2023-05-09T08:28:02.665Z,101489.12
2023-05-09T08:29:06.739Z,101484.02
2023-05-09T08:30:12.290Z,101501.44
2023-05-09T08:31:16.039Z,101486.83
2023-05-09T08:33:32.317Z,101484.28
2023-05-09T08:34:36.502Z,101495.41
2023-05-09T08:35:39.932Z,101488.14
2023-05-09T08:36:47.493Z,101483.61
2023-05-09T08:37:50.708Z,101490.52
2023-05-09T08:38:53.998Z,101489.02
2023-05-09T08:39:56.579Z,101486.07
2023-05-09T08:41:02.690Z,101490.40
2023-05-09T08:42:05.669Z,101494.45
2023-05-09T08:43:10.333Z,101482.25
2023-05-09T08:44:14.651Z,101484.28
2023-05-09T08:45:19.951Z,101488.59
2023-05-09T08:46:25.487Z,101479.94
2023-05-09T08:47:29.706Z,101484.66
2023-05-09T08:48:35.925Z,101475.41
2023-05-09T08:49:41.402Z,101485.08
2023-05-09T08:50:45.425Z,101477.27
2023-05-09T08:51:48.399Z,101483.88
2023-05-09T08:52:52.508Z,101480.72
2023-05-09T08:53:55.925Z,101493.27
2023-05-09T08:54:59.005Z,101489.09
2023-05-09T08:56:06.732Z,101475.03
2023-05-09T08:57:10.624Z,101487.42
2023-05-09T08:58:15.483Z,101483.38
2023-05-09T08:59:18.433Z,101484.87
2023-05-09T09:00:22.694Z,101476.55
2023-05-09T09:01:28.559Z,101478.62
2023-05-09T09:02:33.195Z,101476.43
2023-05-09T09:03:39.210Z,101466.61
2023-05-09T09:04:41.540Z,101474.00
2023-05-09T09:05:44.647Z,101473.09
2023-05-09T09:06:48.230Z,101478.58
2023-05-09T09:07:52.138Z,101472.36
2023-05-09T09:08:58.993Z,101463.98
2023-05-09T09:10:03.956Z,101461.02
2023-05-09T09:11:09.027Z,101465.91
2023-05-09T09:12:13.098Z,101464.81
2023-05-09T09:13:18.434Z,101470.80
2023-05-09T09:14:25.069Z,101464.50
2023-05-09T09:15:30.788Z,101450.35
2023-05-09T09:16:35.246Z,101454.05
2023-05-09T09:17:40.331Z,101459.12
2023-05-09T09:18:46.933Z,101464.59
2023-05-09T09:19:50.905Z,101470.20
2023-05-09T09:20:56.222Z,101456.59
2023-05-09T09:21:59.431Z,101465.53
2023-05-09T09:23:07.185Z,101461.20
2023-05-09T09:24:11.722Z,101462.73
2023-05-09T09:25:15.701Z,101452.69
2023-05-09T09:26:19.192Z,101464.30
2023-05-09T09:27:21.657Z,101465.15
2023-05-09T09:28:27.352Z,101453.64
2023-05-09T09:29:32.963Z,101463.75
2023-05-09T09:30:37.594Z,101466.29
2023-05-09T09:31:42.693Z,101458.15
2023-05-09T09:32:45.478Z,101467.39
2023-05-09T09:33:49.371Z,101465.11
2023-05-09T09:34:54.860Z,101451.87
2023-05-09T09:35:58.401Z,101453.67
2023-05-09T09:37:03.010Z,101461.26
2023-05-09T09:38:07.149Z,101458.86
2023-05-09T09:39:11.752Z,101454.45
2023-05-09T09:40:19.748Z,101453.73
2023-05-09T09:41:24.563Z,101459.36
2023-05-09T09:42:27.856Z,101461.12
2023-05-09T09:43:32.596Z,101458.94
2023-05-09T09:44:35.844Z,101458.55
2023-05-09T09:45:40.189Z,101455.98
2023-05-09T09:46:52.810Z,101451.49
2023-05-09T09:47:55.850Z,101458.39
2023-05-09T09:48:59.724Z,101454.52
2023-05-09T09:50:13.660Z,101453.08
2023-05-09T09:51:18.989Z,101453.81
2023-05-09T09:52:25.817Z,101454.80
2023-05-09T09:53:30.184Z,101446.71
2023-05-09T09:54:34.842Z,101448.80
2023-05-09T09:55:37.905Z,101452.73
2023-05-09T09:56:43.673Z,101452.59
2023-05-09T09:57:50.075Z,101448.08
2023-05-09T09:58:55.260Z,101447.58
2023-05-09T09:59:59.445Z,101443.67
2023-05-09T10:01:09.926Z,101445.13
2023-05-09T10:02:12.745Z,101447.84
2023-05-09T10:03:19.455Z,101455.64
2023-05-09T10:04:23.085Z,101446.59
2023-05-09T10:05:29.908Z,101449.91
2023-05-09T10:06:32.686Z,101458.32
2023-05-09T10:07:35.476Z,101447.45
2023-05-09T10:08:39.207Z,101447.88
2023-05-09T10:09:43.314Z,101457.66
2023-05-09T10:10:46.819Z,101445.58
2023-05-09T10:11:52.197Z,101443.13
2023-05-09T10:12:59.768Z,101441.31
2023-05-09T10:14:04.036Z,101433.49
2023-05-09T10:15:09.439Z,101444.30
2023-05-09T10:16:13.741Z,101440.12
2023-05-09T10:17:18.459Z,101443.41
2023-05-09T10:18:26.727Z,101442.66
2023-05-09T10:19:33.422Z,101441.31
2023-05-09T10:20:40.915Z,101437.25
2023-05-09T10:21:47.415Z,101444.83
2023-05-09T10:22:52.005Z,101449.32
2023-05-09T10:23:57.594Z,101453.58
2023-05-09T10:25:05.408Z,101452.10
2023-05-09T10:26:22.871Z,101439.23
2023-05-09T10:27:28.798Z,101442.65
2023-05-09T10:28:34.315Z,101441.44
2023-05-09T10:29:50.008Z,101447.79
2023-05-09T10:30:59.846Z,101441.44
2023-05-09T10:32:06.882Z,101436.56
2023-05-09T10:33:14.114Z,101444.00
2023-05-09T10:34:18.901Z,101438.11
2023-05-09T10:35:24.351Z,101430.16
2023-05-09T10:36:29.215Z,101436.66
2023-05-09T10:37:33.560Z,101426.78
2023-05-09T10:38:41.020Z,101438.97
2023-05-09T10:39:45.997Z,101439.54
2023-05-09T10:40:49.804Z,101432.22
2023-05-09T10:41:53.517Z,101439.28
2023-05-09T10:42:57.544Z,101442.94
2023-05-09T10:44:02.143Z,101435.80
2023-05-09T10:45:08.304Z,101447.79
2023-05-09T10:46:13.834Z,101430.70
2023-05-09T10:47:17.837Z,101425.95
2023-05-09T10:48:22.495Z,101427.13
2023-05-09T10:49:27.905Z,101427.25
2023-05-09T10:50:31.850Z,101431.48
2023-05-09T10:51:38.450Z,101428.22
2023-05-09T10:53:03.780Z,101427.31
2023-05-09T10:54:08.885Z,101430.25
2023-05-09T10:55:12.031Z,101426.64
2023-05-09T10:56:29.328Z,101433.19
2023-05-09T10:57:34.012Z,101437.52
2023-05-09T10:58:41.780Z,101429.48
2023-05-09T10:59:47.162Z,101428.47
2023-05-09T11:00:51.482Z,101424.27
2023-05-09T11:01:56.724Z,101428.00
2023-05-09T11:03:10.672Z,101418.86
2023-05-09T11:04:17.369Z,101420.47
2023-05-09T11:05:21.072Z,101420.45
2023-05-09T11:06:46.722Z,101416.92
2023-05-09T11:07:53.784Z,101414.12
2023-05-09T11:08:57.290Z,101418.31
2023-05-09T11:10:14.377Z,101414.57
2023-05-09T11:11:19.870Z,101414.78
2023-05-09T11:12:23.577Z,101419.95
2023-05-09T11:13:28.268Z,101415.02
2023-05-09T11:14:36.233Z,101410.63
2023-05-09T11:15:56.882Z,101422.03
2023-05-09T11:16:59.833Z,101408.71
2023-05-09T11:18:06.696Z,101414.02
2023-05-09T11:19:11.499Z,101414.47
2023-05-09T11:20:17.070Z,101410.81
2023-05-09T11:21:21.118Z,101394.67
2023-05-09T11:22:26.876Z,101402.13
2023-05-09T11:23:31.850Z,101402.02
2023-05-09T11:24:36.633Z,101402.03
2023-05-09T11:25:42.040Z,101400.66
2023-05-09T11:26:48.948Z,101406.16
2023-05-09T11:27:53.062Z,101396.14
2023-05-09T11:28:57.520Z,101393.69
2023-05-09T11:30:02.908Z,101403.09
2023-05-09T11:31:10.178Z,101406.25
2023-05-09T11:32:18.672Z,101392.59
2023-05-09T11:33:33.953Z,101393.19
2023-05-09T11:34:39.366Z,101393.57
2023-05-09T11:35:44.540Z,101396.75
2023-05-09T11:36:48.898Z,101392.00
2023-05-09T11:38:02.117Z,101398.58
2023-05-09T11:39:07.382Z,101392.11
2023-05-09T11:40:14.398Z,101388.69
2023-05-09T11:41:19.418Z,101399.28
2023-05-09T11:42:24.596Z,101390.42
2023-05-09T11:43:28.096Z,101394.41
2023-05-09T11:44:33.989Z,101395.94
2023-05-09T11:45:37.526Z,101388.95
2023-05-09T11:46:41.008Z,101394.52
2023-05-09T11:47:49.184Z,101391.64
2023-05-09T11:48:52.722Z,101384.25
2023-05-09T11:49:56.220Z,101385.70
2023-05-09T11:50:59.740Z,101387.74
2023-05-09T11:52:04.273Z,101378.86
2023-05-09T11:53:10.471Z,101395.89
2023-05-09T11:54:16.743Z,101396.90
2023-05-09T11:55:24.509Z,101391.86
2023-05-09T11:56:32.089Z,101397.08
2023-05-09T11:57:36.221Z,101392.44
2023-05-09T11:58:42.014Z,101392.92
2023-05-09T11:59:47.543Z,101392.11
2023-05-09T12:00:50.901Z,101382.67
2023-05-09T12:01:56.099Z,101391.33
2023-05-09T12:02:59.775Z,101393.50
2023-05-09T12:04:08.604Z,101384.00
2023-05-09T12:05:13.715Z,101385.83
2023-05-09T12:06:20.073Z,101380.65
2023-05-09T12:07:23.120Z,101376.74
2023-05-09T12:08:27.771Z,101380.33
2023-05-09T12:09:38.737Z,101379.72
2023-05-09T12:10:45.514Z,101374.34
2023-05-09T12:11:53.353Z,101386.44
2023-05-09T12:12:57.788Z,101378.86
2023-05-09T12:14:01.054Z,101373.12
2023-05-09T12:15:08.707Z,101379.42
2023-05-09T12:16:14.047Z,101370.67
2023-05-09T12:17:18.478Z,101368.26
2023-05-09T12:18:23.757Z,101370.73
2023-05-09T12:19:27.466Z,101365.48
2023-05-09T12:20:34.590Z,101364.50
2023-05-09T12:21:40.526Z,101370.58
2023-05-09T12:22:44.366Z,101360.25
2023-05-09T12:23:50.991Z,101362.44
2023-05-09T12:24:55.798Z,101360.59
2023-05-09T12:26:00.192Z,101361.93
2023-05-09T12:27:03.387Z,101358.70